createdAt,value
2022-12-11T00:04:33.697Z,-2.21
2022-12-11T00:14:38.051Z,-2.17
2022-12-11T00:24:41.440Z,-2.11
2022-12-11T00:34:46.189Z,-2.07
2022-12-11T00:55:38.451Z,-1.97
2022-12-11T01:05:53.694Z,-1.91
2022-12-11T01:15:57.139Z,-1.86
2022-12-11T01:26:07.686Z,-1.81
2022-12-11T01:36:12.465Z,-1.75
2022-12-11T01:46:17.006Z,-1.70
2022-12-11T01:56:20.323Z,-1.64
2022-12-11T02:06:38.688Z,-1.59
2022-12-11T02:16:56.122Z,-0.71
2022-12-11T02:27:17.257Z,-0.71
2022-12-11T02:37:25.307Z,-0.71
2022-12-11T02:47:32.327Z,-0.73
2022-12-11T02:57:51.704Z,-0.73
2022-12-11T03:07:54.809Z,-0.73
2022-12-11T03:18:06.020Z,-0.76
2022-12-11T03:28:12.984Z,-0.76
2022-12-11T03:38:23.791Z,-0.76
2022-12-11T03:48:31.483Z,-0.75
2022-12-11T03:58:36.183Z,-0.74
2022-12-11T04:08:39.198Z,-0.75
2022-12-11T04:19:02.184Z,-0.73
2022-12-11T04:29:05.223Z,-0.71
2022-12-11T04:39:09.717Z,-0.72
2022-12-11T04:49:12.991Z,-0.70
2022-12-11T04:59:17.785Z,-0.68
2022-12-11T05:09:21.692Z,-0.69
2022-12-11T05:19:41.103Z,-0.67
2022-12-11T05:29:44.684Z,-0.66
2022-12-11T05:39:49.681Z,-0.65
2022-12-11T05:49:53.241Z,-0.68
2022-12-11T05:59:58.124Z,-0.67
2022-12-11T06:10:04.069Z,-0.64
2022-12-11T06:20:13.896Z,-0.64
2022-12-11T06:30:17.396Z,-0.62
2022-12-11T06:40:22.155Z,-0.58
2022-12-11T06:50:25.527Z,-0.59
2022-12-11T07:00:29.988Z,-0.56
2022-12-11T07:10:33.366Z,-0.53
2022-12-11T07:20:37.782Z,-0.49
2022-12-11T07:30:40.651Z,-0.47
2022-12-11T07:40:45.173Z,-0.45
2022-12-11T07:50:48.043Z,-0.39
2022-12-11T08:00:52.412Z,-0.34
2022-12-11T08:10:57.163Z,-0.28
2022-12-11T08:21:18.523Z,-0.22
2022-12-11T08:31:23.567Z,-0.18
2022-12-11T08:41:32.144Z,-0.16
2022-12-11T08:51:35.361Z,-0.13
2022-12-11T09:01:46.146Z,-0.10
2022-12-11T09:11:54.068Z,-0.07
2022-12-11T09:22:00.387Z,-0.06
2022-12-11T09:32:13.195Z,-0.02
2022-12-11T09:42:27.588Z,0.02
2022-12-11T09:52:36.182Z,0.05
2022-12-11T10:02:50.217Z,0.05
2022-12-11T10:13:15.139Z,0.07
2022-12-11T10:23:22.625Z,0.10
2022-12-11T10:33:35.307Z,0.12
2022-12-11T10:43:42.778Z,0.16
2022-12-11T10:53:51.502Z,0.18
2022-12-11T11:03:59.534Z,0.21
2022-12-11T11:14:13.836Z,0.21
2022-12-11T11:24:28.034Z,0.21
2022-12-11T11:34:31.351Z,0.22
2022-12-11T11:44:40.887Z,0.23
2022-12-11T11:54:53.623Z,0.23
2022-12-11T12:04:58.366Z,0.24
2022-12-11T12:15:18.984Z,0.22
2022-12-11T12:25:30.368Z,0.21
2022-12-11T12:35:37.515Z,0.22
2022-12-11T12:45:51.807Z,0.22
2022-12-11T12:55:56.017Z,0.19
2022-12-11T13:06:03.194Z,0.19
2022-12-11T13:16:09.431Z,0.19
2022-12-11T13:26:29.171Z,0.18
2022-12-11T13:36:34.335Z,0.18
2022-12-11T13:46:41.548Z,0.16
2022-12-11T13:56:55.330Z,0.16
2022-12-11T14:07:09.361Z,0.14
2022-12-11T14:17:38.460Z,0.14
2022-12-11T14:27:51.069Z,0.14
2022-12-11T14:37:55.460Z,0.11
2022-12-11T14:48:02.299Z,0.11
2022-12-11T14:58:15.483Z,0.09
2022-12-11T15:08:27.909Z,0.07
2022-12-11T15:18:34.683Z,0.07
2022-12-11T15:28:39.505Z,0.08
2022-12-11T15:38:44.552Z,0.09
2022-12-11T15:48:50.470Z,0.10
2022-12-11T15:58:53.406Z,0.07
2022-12-11T16:08:57.922Z,0.08
2022-12-11T16:19:01.165Z,0.10
2022-12-11T16:29:05.952Z,0.10
2022-12-11T16:39:11.226Z,0.12
2022-12-11T16:49:15.715Z,0.12
2022-12-11T16:59:18.600Z,0.13
2022-12-11T17:09:22.917Z,0.14
2022-12-11T17:19:25.969Z,0.15
2022-12-11T17:29:30.316Z,0.15
2022-12-11T17:39:33.670Z,0.14
2022-12-11T17:49:38.062Z,0.15
2022-12-11T17:59:40.990Z,0.13
2022-12-11T18:09:45.689Z,0.11
2022-12-11T18:19:48.695Z,0.12
2022-12-11T18:29:58.197Z,0.13
2022-12-11T18:40:01.742Z,0.11
2022-12-11T18:50:40.712Z,0.07
2022-12-11T19:11:10.445Z,0.05
2022-12-11T19:21:16.769Z,0.03
2022-12-11T20:03:34.859Z,0.05
2022-12-11T20:24:21.807Z,0.05
2022-12-11T20:34:27.279Z,0.06
2022-12-11T20:55:51.128Z,0.07
2022-12-11T21:16:22.835Z,0.04
2022-12-11T21:26:29.120Z,0.05
2022-12-11T21:36:41.905Z,0.07
2022-12-11T21:57:26.239Z,0.04
2022-12-11T22:07:31.551Z,0.06
2022-12-11T22:17:34.684Z,0.03
2022-12-11T22:27:39.189Z,0.04
2022-12-11T22:37:42.858Z,0.06
2022-12-11T22:47:47.763Z,0.09
2022-12-11T22:57:50.896Z,0.08
2022-12-11T23:18:43.262Z,0.11
2022-12-11T23:28:46.818Z,0.13
2022-12-11T23:38:54.743Z,0.14
2022-12-11T23:48:58.556Z,0.18
2022-12-11T23:59:03.256Z,0.22
